Time;durP1;ratioP1;P1;durP2;ratioP2;P2;SDS_P1;SDS_P2;PMS_P1;PMS_P2;Temp;Humidity;BMP_temperature;BMP_pressure;BME280_temperature;BME280_humidity;BME280_pressure;Samples;Min_cycle;Max_cycle;Signal;HPM_P1;HPM_P2
2020/12/21 00:00:11;;;;;;;28.83;14.83;;;;;;;3.67;90.43;102630.22;1849375;77;21041;-63
2020/12/21 00:02:46;;;;;;;35.13;15.90;;;;;;;3.68;90.70;102627.61;1849275;77;20906;-63
2020/12/21 00:05:13;;;;;;;33.20;15.63;;;;;;;3.68;90.83;102632.92;1849431;77;21420;-62
2020/12/21 00:07:43;;;;;;;31.55;15.85;;;;;;;3.70;91.03;102638.24;1849192;77;21104;-63
2020/12/21 00:10:11;;;;;;;27.58;14.33;;;;;;;3.73;91.28;102635.66;1849229;77;21123;-62
2020/12/21 00:12:38;;;;;;;30.12;14.98;;;;;;;3.73;91.35;102645.86;1849295;77;21084;-62
2020/12/21 00:15:07;;;;;;;35.28;16.42;;;;;;;3.73;91.36;102640.55;1849250;77;21528;-62
2020/12/21 00:17:35;;;;;;;31.90;14.65;;;;;;;3.73;91.50;102633.91;1848829;77;22301;-60
2020/12/21 00:20:04;;;;;;;31.48;15.40;;;;;;;3.72;91.63;102640.09;1840312;78;21078;-62
2020/12/21 00:22:31;;;;;;;31.82;15.18;;;;;;;3.73;91.71;102647.59;1840381;78;21049;-62
2020/12/21 00:24:59;;;;;;;30.12;15.00;;;;;;;3.73;91.86;102644.53;1840298;78;21131;-62
2020/12/21 00:27:26;;;;;;;31.60;15.45;;;;;;;3.73;91.92;102644.53;1840445;78;21092;-62
2020/12/21 00:29:54;;;;;;;32.48;14.78;;;;;;;3.71;91.89;102648.91;1840374;78;21359;-63
2020/12/21 00:32:21;;;;;;;33.30;14.93;;;;;;;3.66;91.89;102646.58;1840341;78;21057;-62
2020/12/21 00:34:49;;;;;;;28.05;14.07;;;;;;;3.62;92.13;102639.38;1840333;78;21035;-62
2020/12/21 00:37:16;;;;;;;31.25;14.98;;;;;;;3.61;92.43;102635.38;1831749;78;21130;-62
2020/12/21 00:39:45;;;;;;;32.48;15.55;;;;;;;3.61;92.65;102634.94;1824262;78;21047;-62
2020/12/21 00:42:13;;;;;;;31.30;14.20;;;;;;;3.64;92.87;102636.33;1824299;78;21422;-62
2020/12/21 00:44:42;;;;;;;32.30;14.80;;;;;;;3.65;92.92;102635.50;1824252;78;21063;-62
2020/12/21 00:47:09;;;;;;;30.88;14.03;;;;;;;3.64;93.00;102629.70;1824317;77;21102;-62
2020/12/21 00:49:37;;;;;;;27.58;13.13;;;;;;;3.66;93.17;102628.42;1824336;78;21106;-62
2020/12/21 00:52:04;;;;;;;33.85;14.80;;;;;;;3.67;93.30;102629.80;1824292;78;21062;-62
2020/12/21 00:54:32;;;;;;;27.02;13.20;;;;;;;3.68;93.29;102622.30;1824368;78;21204;-62
2020/12/21 00:56:59;;;;;;;28.60;13.43;;;;;;;3.69;93.34;102625.84;1824271;78;21205;-62
2020/12/21 00:59:27;;;;;;;27.10;13.03;;;;;;;3.68;93.30;102619.66;1824549;78;21692;-63
2020/12/21 01:01:54;;;;;;;28.83;13.75;;;;;;;3.67;93.24;102616.53;1824300;78;21177;-62
2020/12/21 01:04:22;;;;;;;25.85;11.78;;;;;;;3.67;93.25;102624.49;1824363;78;21158;-63
2020/12/21 01:06:54;;;;;;;26.25;13.35;;;;;;;3.67;93.39;102617.86;1824268;77;21374;-63
2020/12/21 01:09:21;;;;;;;28.62;13.95;;;;;;;3.69;93.48;102617.46;1824199;78;21046;-62
2020/12/21 01:11:54;;;;;;;29.35;14.47;;;;;;;3.68;93.57;102617.00;1824210;77;21095;-63
2020/12/21 01:14:21;;;;;;;33.02;14.25;;;;;;;3.68;93.58;102618.74;1804831;78;21063;-62
2020/12/21 01:16:49;;;;;;;30.43;14.50;;;;;;;3.67;93.60;102615.21;1824286;77;21102;-62
2020/12/21 01:19:16;;;;;;;25.62;13.60;;;;;;;3.66;93.46;102617.81;1824182;77;21318;-62
2020/12/21 01:21:45;;;;;;;32.48;14.58;;;;;;;3.63;93.49;102615.09;1824291;78;21051;-62
2020/12/21 01:24:12;;;;;;;30.52;14.20;;;;;;;3.63;93.62;102617.74;1824278;78;21070;-62
2020/12/21 01:26:40;;;;;;;30.02;14.23;;;;;;;3.62;93.70;102614.17;1824286;78;21091;-63
2020/12/21 01:29:07;;;;;;;31.48;14.43;;;;;;;3.62;93.69;102616.83;1824220;78;21082;-63
2020/12/21 01:31:35;;;;;;;30.00;14.05;;;;;;;3.61;93.65;102613.71;1824340;78;21366;-62
2020/12/21 01:34:04;;;;;;;31.12;13.68;;;;;;;3.60;93.77;102619.87;1823149;78;21078;-62
2020/12/21 01:36:32;;;;;;;32.98;13.90;;;;;;;3.58;93.64;102616.30;1828007;78;21040;-61
2020/12/21 01:38:59;;;;;;;27.62;13.03;;;;;;;3.54;93.72;102616.67;1840252;78;21088;-62
2020/12/21 01:41:27;;;;;;;38.48;14.93;;;;;;;3.52;93.82;102612.17;1840541;78;21558;-62
2020/12/21 01:43:55;;;;;;;37.35;16.00;;;;;;;3.49;93.98;102607.68;1840389;78;21180;-61
2020/12/21 01:46:23;;;;;;;40.58;16.50;;;;;;;3.47;94.10;102605.87;1840203;78;21111;-62
2020/12/21 01:48:51;;;;;;;45.08;19.07;;;;;;;3.47;94.23;102612.05;1840378;78;20934;-62
2020/12/21 01:51:26;;;;;;;38.35;16.60;;;;;;;3.48;94.37;102605.02;1840234;78;21194;-62
2020/12/21 01:53:53;;;;;;;;;;;;;;;3.49;94.49;102601.50;1843109;78;20926;-62
2020/12/21 01:56:21;;;;;;;34.15;15.10;;;;;;;3.51;94.46;102602.42;1840331;78;21440;-62
2020/12/21 01:58:49;;;;;;;54.45;17.15;;;;;;;3.50;94.52;102595.33;1840266;78;21092;-62
2020/12/21 02:01:18;;;;;;;48.30;18.25;;;;;;;3.51;94.61;102597.13;1840331;78;21104;-62
2020/12/21 02:03:46;;;;;;;40.25;16.73;;;;;;;3.52;94.62;102599.80;1840247;78;21171;-62
2020/12/21 02:06:13;;;;;;;34.40;15.78;;;;;;;3.52;94.68;102598.91;1840343;78;21048;-62
2020/12/21 02:08:41;;;;;;;35.38;15.55;;;;;;;3.52;94.75;102599.80;1840281;77;21339;-63
2020/12/21 02:11:10;;;;;;;31.73;14.33;;;;;;;3.53;94.80;102595.40;1840246;78;21110;-62
2020/12/21 02:13:39;;;;;;;29.40;14.40;;;;;;;3.53;94.83;102592.30;1840285;78;21038;-62
2020/12/21 02:16:11;;;;;;;38.15;15.23;;;;;;;3.53;94.96;102595.40;1840420;78;21152;-62
2020/12/21 02:18:36;;;;;;;32.98;14.55;;;;;;;3.52;94.99;102590.95;1810596;78;21120;-62
2020/12/21 02:21:05;;;;;;;38.67;14.83;;;;;;;3.50;94.95;102589.58;1840357;78;21352;-63
2020/12/21 02:23:32;;;;;;;38.20;14.75;;;;;;;3.49;95.05;102589.11;1840311;78;21104;-62
2020/12/21 02:26:00;;;;;;;39.38;15.55;;;;;;;3.50;95.15;102592.68;1840288;78;21120;-62
2020/12/21 02:28:27;;;;;;;44.00;14.83;;;;;;;3.50;95.21;102587.38;1840089;78;21124;-62
2020/12/21 02:30:55;;;;;;;60.98;16.05;;;;;;;3.50;95.20;102587.38;1840424;78;21033;-62
2020/12/21 02:33:23;;;;;;;59.80;15.90;;;;;;;3.49;95.26;102588.23;1840213;78;21367;-63
2020/12/21 02:35:51;;;;;;;62.40;15.98;;;;;;;3.48;95.32;102583.34;1840097;78;21052;-62
2020/12/21 02:38:18;;;;;;;56.83;16.00;;;;;;;3.49;95.45;102587.79;1827716;78;21187;-63
2020/12/21 02:40:48;;;;;;;50.92;17.40;;;;;;;3.51;95.59;102590.49;1827391;78;21169;-62
2020/12/21 02:43:17;;;;;;;44.20;16.10;;;;;;;3.54;95.53;102579.95;1826944;78;21102;-62
2020/12/21 02:45:46;;;;;;;55.73;17.10;;;;;;;3.53;95.54;102583.47;1827335;78;21188;-62
2020/12/21 02:48:13;;;;;;;41.20;15.28;;;;;;;3.55;95.47;102583.06;1827355;78;21055;-62
2020/12/21 02:50:42;;;;;;;49.48;16.50;;;;;;;3.55;95.51;102583.06;1827450;78;21040;-62
2020/12/21 02:53:12;;;;;;;50.45;17.48;;;;;;;3.56;95.52;102576.90;1827429;78;21113;-61
2020/12/21 02:55:39;;;;;;;50.52;16.40;;;;;;;3.57;95.51;102585.33;1827525;78;22015;-63
2020/12/21 02:58:06;;;;;;;45.30;17.05;;;;;;;3.57;95.49;102577.37;1827435;77;21527;-61
2020/12/21 03:00:34;;;;;;;32.58;15.25;;;;;;;3.57;95.54;102586.66;1827338;78;21157;-62
2020/12/21 03:03:06;;;;;;;37.25;15.45;;;;;;;3.57;95.50;102583.58;1827392;78;21086;-62
2020/12/21 03:05:34;;;;;;;37.15;16.12;;;;;;;3.57;95.51;102584.00;1827442;78;21059;-62
2020/12/21 03:08:03;;;;;;;53.25;17.05;;;;;;;3.57;95.48;102581.34;1827350;78;21043;-63
2020/12/21 03:10:32;;;;;;;47.27;16.65;;;;;;;3.57;95.52;102582.67;1827519;78;21361;-62
2020/12/21 03:13:00;;;;;;;41.23;16.30;;;;;;;3.55;95.60;102576.02;1827341;77;21138;-63
2020/12/21 03:15:27;;;;;;;53.28;18.25;;;;;;;3.57;95.68;102574.72;1827444;78;20996;-62
2020/12/21 03:17:55;;;;;;;40.85;15.78;;;;;;;3.59;95.75;102574.31;1827249;78;21055;-62
2020/12/21 03:20:22;;;;;;;47.75;17.17;;;;;;;3.60;95.77;102573.45;1827337;77;21035;-62
2020/12/21 03:22:50;;;;;;;36.35;16.65;;;;;;;3.61;95.73;102571.27;1827312;77;21350;-62
2020/12/21 03:25:17;;;;;;;46.33;16.77;;;;;;;3.61;95.72;102575.25;1827330;78;21102;-63
2020/12/21 03:27:45;;;;;;;33.28;15.28;;;;;;;3.61;95.72;102580.55;1827356;77;21042;-62
2020/12/21 03:30:13;;;;;;;39.67;15.00;;;;;;;3.60;95.75;102578.76;1827589;77;21035;-63
2020/12/21 03:32:42;;;;;;;36.90;15.85;;;;;;;3.59;95.77;102576.97;1827677;78;21455;-62
2020/12/21 03:35:11;;;;;;;44.13;16.12;;;;;;;3.59;95.91;102587.58;1825523;78;21383;-62
2020/12/21 03:37:41;;;;;;;35.38;16.17;;;;;;;3.57;95.96;102574.72;1836582;78;21595;-62
2020/12/21 03:40:10;;;;;;;31.42;15.55;;;;;;;3.57;96.05;102584.00;1840408;78;21112;-62
2020/12/21 03:42:39;;;;;;;37.65;16.00;;;;;;;3.56;96.16;102588.84;1784413;80;21596;-62
2020/12/21 03:45:07;;;;;;;34.18;15.95;;;;;;;3.55;96.19;102577.77;1786622;80;21133;-62
2020/12/21 03:47:34;;;;;;;41.28;16.60;;;;;;;3.54;96.28;102574.64;1786639;80;23592;-62
2020/12/21 03:50:03;;;;;;;34.35;15.32;;;;;;;3.54;96.34;102572.91;1786523;80;21074;-62
2020/12/21 03:52:31;;;;;;;34.18;14.80;;;;;;;3.54;96.40;102573.32;1786591;80;21058;-62
2020/12/21 03:54:59;;;;;;;40.00;15.68;;;;;;;3.53;96.45;102572.41;1786618;80;21121;-62
2020/12/21 03:57:27;;;;;;;34.35;15.28;;;;;;;3.54;96.48;102562.70;1786627;80;21104;-62
2020/12/21 03:59:54;;;;;;;37.08;16.42;;;;;;;3.55;96.60;102567.16;1786656;80;21361;-62
2020/12/21 04:02:22;;;;;;;40.35;15.83;;;;;;;3.58;96.61;102567.22;1786573;80;21053;-62
2020/12/21 04:04:49;;;;;;;41.68;17.40;;;;;;;3.57;96.53;102566.76;1786626;80;21162;-62
2020/12/21 04:07:17;;;;;;;34.50;15.30;;;;;;;3.56;96.54;102568.95;1786612;80;21117;-62
2020/12/21 04:09:44;;;;;;;38.23;16.27;;;;;;;3.57;96.56;102565.43;1786661;80;21065;-62
2020/12/21 04:12:12;;;;;;;32.50;15.03;;;;;;;3.57;96.50;102564.11;1786568;80;21366;-62
2020/12/21 04:14:40;;;;;;;36.30;15.65;;;;;;;3.57;96.55;102558.80;1786585;80;21113;-62
2020/12/21 04:17:08;;;;;;;31.48;14.38;;;;;;;3.56;96.32;102563.64;1786534;80;21125;-62
2020/12/21 04:19:35;;;;;;;36.17;14.53;;;;;;;3.55;96.26;102560.52;1787970;80;21045;-61
2020/12/21 04:22:03;;;;;;;44.40;16.40;;;;;;;3.55;96.40;102561.44;1790487;80;21071;-62
2020/12/21 04:24:31;;;;;;;33.18;14.60;;;;;;;3.56;96.37;102566.30;1790545;80;21356;-62
2020/12/21 04:26:58;;;;;;;40.17;15.65;;;;;;;3.58;96.40;102564.16;1790364;79;21148;-64
2020/12/21 04:29:26;;;;;;;34.98;15.08;;;;;;;3.58;96.31;102561.91;1790568;80;21164;-62
2020/12/21 04:31:54;;;;;;;36.35;15.78;;;;;;;3.60;96.34;102564.17;1790578;80;21060;-62
2020/12/21 04:34:24;;;;;;;40.25;14.33;;;;;;;3.58;96.18;102565.89;1790527;80;21149;-61
2020/12/21 04:36:53;;;;;;;34.63;15.32;;;;;;;3.60;96.19;102575.23;1778683;80;22430;-62
2020/12/21 04:39:21;;;;;;;36.80;14.47;;;;;;;3.62;96.18;102570.41;1759152;81;21049;-62
2020/12/21 04:41:53;;;;;;;33.33;14.03;;;;;;;3.63;96.12;102573.52;1767079;81;21596;-62
2020/12/21 04:44:22;;;;;;;29.72;12.65;;;;;;;3.66;96.14;102573.63;1782895;80;21074;-62
2020/12/21 04:46:55;;;;;;;28.10;12.65;;;;;;;3.67;95.91;102571.44;1767157;81;21163;-62
2020/12/21 04:49:23;;;;;;;24.65;10.38;;;;;;;3.69;95.68;102568.80;1782569;80;21713;-62
2020/12/21 04:51:51;;;;;;;22.80;11.22;;;;;;;3.70;95.20;102574.56;1767061;81;21263;-63
2020/12/21 04:54:19;;;;;;;20.77;10.55;;;;;;;3.68;94.75;102573.22;1783058;80;21500;-63
2020/12/21 04:56:46;;;;;;;21.68;10.18;;;;;;;3.70;94.58;102577.22;1767037;81;21219;-62
2020/12/21 04:59:14;;;;;;;22.75;10.28;;;;;;;3.71;94.28;102574.61;1782986;80;21106;-63
2020/12/21 05:01:43;;;;;;;22.40;9.40;;;;;;;3.71;94.01;102575.94;1767053;81;22075;-63
2020/12/21 05:04:14;;;;;;;15.15;8.43;;;;;;;3.71;93.48;102586.55;1782940;80;21125;-61
2020/12/21 05:06:52;;;;;;;18.90;8.03;;;;;;;3.73;93.19;102582.59;1736629;82;21072;-62
2020/12/21 05:09:23;;;;;;;19.40;9.25;;;;;;;3.73;92.34;102585.25;1783019;80;21019;-62
2020/12/21 05:12:03;;;;;;;19.27;8.60;;;;;;;3.71;91.26;102582.58;1736611;82;21156;-63
2020/12/21 05:14:36;;;;;;;20.65;9.53;;;;;;;3.69;90.79;102582.06;1783030;80;22260;-62
2020/12/21 05:17:13;;;;;;;18.02;8.78;;;;;;;3.67;90.54;102583.38;1736494;82;21184;-62
2020/12/21 05:19:42;;;;;;;20.20;9.83;;;;;;;3.68;90.29;102582.51;1781358;78;21051;-62
2020/12/21 05:22:17;;;;;;;18.82;9.98;;;;;;;3.66;89.86;102581.58;1731344;82;21179;-64
2020/12/21 05:24:44;;;;;;;22.60;9.80;;;;;;;3.66;89.85;102581.58;1777708;80;21872;-63
2020/12/21 05:27:16;;;;;;;25.85;10.43;;;;;;;3.66;89.82;102588.21;1731509;82;22351;-63
2020/12/21 05:29:54;;;;;;;19.12;9.98;;;;;;;3.66;89.54;102584.23;1777311;80;21070;-63
2020/12/21 05:32:22;;;;;;;23.02;10.60;;;;;;;3.67;89.50;102586.02;1731391;82;21073;-63
2020/12/21 05:34:50;;;;;;;22.93;10.72;;;;;;;3.68;89.42;102587.81;1777307;80;21134;-63
2020/12/21 05:37:19;;;;;;;27.13;11.25;;;;;;;3.68;89.43;102587.81;1775482;80;21117;-62
2020/12/21 05:39:54;;;;;;;20.92;10.70;;;;;;;3.67;89.58;102593.98;1767033;81;21784;-63
2020/12/21 05:42:22;;;;;;;25.35;11.63;;;;;;;3.69;89.85;102592.67;1755856;81;21495;-63
2020/12/21 05:44:57;;;;;;;27.27;11.70;;;;;;;3.72;90.15;102594.06;1767026;81;21139;-63
2020/12/21 05:47:26;;;;;;;24.50;11.73;;;;;;;3.70;90.39;102594.05;1755806;81;26615;-63
2020/12/21 05:50:06;;;;;;;32.05;13.25;;;;;;;3.69;90.62;102596.23;1767143;81;21051;-63
2020/12/21 05:52:35;;;;;;;29.35;12.65;;;;;;;3.65;90.79;102594.38;1755638;81;21284;-62
2020/12/21 05:55:07;;;;;;;26.37;12.40;;;;;;;3.65;90.99;102604.99;1766960;81;21091;-63
2020/12/21 05:57:36;;;;;;;32.58;13.75;;;;;;;3.64;91.38;102597.86;1755519;81;21081;-63
2020/12/21 06:00:10;;;;;;;32.63;12.85;;;;;;;3.64;91.65;102596.53;1766989;81;21068;-63
2020/12/21 06:02:38;;;;;;;34.08;13.70;;;;;;;3.63;91.66;102600.05;1755588;81;21129;-63
2020/12/21 06:05:12;;;;;;;30.52;13.88;;;;;;;3.62;91.78;102612.85;1766841;81;21167;-63
2020/12/21 06:07:47;;;;;;;42.03;15.80;;;;;;;3.61;92.15;102604.88;1755722;81;21474;-63
2020/12/21 06:10:14;;;;;;;41.45;15.40;;;;;;;3.61;92.63;102608.41;1767048;80;22430;-63
2020/12/21 06:12:50;;;;;;;44.13;15.35;;;;;;;3.61;92.80;102609.73;1755737;81;21189;-63
2020/12/21 06:15:22;;;;;;;45.15;14.40;;;;;;;3.62;93.00;102611.52;1767021;81;21104;-64
2020/12/21 06:17:49;;;;;;;47.95;15.83;;;;;;;3.62;93.04;102619.48;1755668;81;21365;-63
2020/12/21 06:20:18;;;;;;;43.98;16.07;;;;;;;3.63;93.17;102617.74;1768215;80;21135;-63
2020/12/21 06:22:46;;;;;;;52.13;14.85;;;;;;;3.62;93.26;102619.48;1754902;81;21140;-64
2020/12/21 06:25:22;;;;;;;43.98;15.30;;;;;;;3.63;93.34;102623.92;1771293;81;21068;-62
2020/12/21 06:27:50;;;;;;;44.75;14.75;;;;;;;3.62;93.46;102622.14;1754991;81;21563;-62
2020/12/21 06:30:29;;;;;;;42.03;14.83;;;;;;;3.61;93.45;102620.34;1771357;80;21370;-62
2020/12/21 06:33:01;;;;;;;34.92;14.55;;;;;;;3.60;93.47;102618.55;1754760;81;21169;-62
2020/12/21 06:35:29;;;;;;;32.78;13.78;;;;;;;3.60;93.53;102611.92;1771360;80;21131;-62
2020/12/21 06:38:02;;;;;;;32.38;14.15;;;;;;;3.60;93.58;102611.92;1757569;81;21177;-63
2020/12/21 06:40:34;;;;;;;34.48;14.35;;;;;;;3.60;93.46;102612.37;1758205;81;21110;-62
2020/12/21 06:43:11;;;;;;;37.83;13.00;;;;;;;3.60;93.41;102615.90;1758411;81;21190;-62
2020/12/21 06:45:41;;;;;;;35.92;13.60;;;;;;;3.61;93.37;102617.69;1780834;80;21125;-63
2020/12/21 06:48:08;;;;;;;32.17;12.68;;;;;;;3.62;93.23;102619.48;1780880;80;21121;-63
2020/12/21 06:50:36;;;;;;;32.98;12.85;;;;;;;3.65;93.17;102618.26;1780868;80;21153;-63
2020/12/21 06:53:08;;;;;;;29.15;12.65;;;;;;;3.65;92.41;102616.93;1780995;80;21050;-63
2020/12/21 06:55:36;;;;;;;40.10;13.03;;;;;;;3.68;92.18;102616.09;1780974;80;21524;-62
2020/12/21 06:58:03;;;;;;;32.23;12.33;;;;;;;3.68;91.77;102618.33;1780824;80;21053;-63
2020/12/21 07:00:34;;;;;;;35.80;12.82;;;;;;;3.69;91.58;102621.86;1780803;80;21090;-62
2020/12/21 07:03:01;;;;;;;30.65;12.33;;;;;;;3.69;91.43;102621.45;1780953;80;21070;-62
2020/12/21 07:05:29;;;;;;;37.25;12.88;;;;;;;3.70;91.12;102623.23;1780908;80;21081;-63
2020/12/21 07:07:59;;;;;;;29.98;11.85;;;;;;;3.70;90.62;102621.91;1780969;80;21394;-64
2020/12/21 07:10:30;;;;;;;31.65;12.30;;;;;;;3.70;90.33;102621.91;1780956;80;22006;-62
2020/12/21 07:12:57;;;;;;;30.85;12.13;;;;;;;3.72;90.31;102633.45;1780857;80;21568;-62
2020/12/21 07:15:26;;;;;;;29.30;12.43;;;;;;;3.73;89.90;102625.95;1780609;80;38386;-62
2020/12/21 07:17:54;;;;;;;31.42;10.60;;;;;;;3.76;89.72;102629.54;1780824;80;21050;-63
2020/12/21 07:20:23;;;;;;;28.55;12.65;;;;;;;3.80;89.61;102636.70;1785508;79;21361;-64
2020/12/21 07:22:51;;;;;;;25.85;11.03;;;;;;;3.81;89.24;102639.41;1798391;79;21070;-63
2020/12/21 07:25:20;;;;;;;27.85;10.38;;;;;;;3.81;88.79;102639.83;1731639;79;21097;-63
2020/12/21 07:27:48;;;;;;;27.37;11.20;;;;;;;3.78;88.52;102633.13;1798444;79;21133;-63
2020/12/21 07:30:15;;;;;;;30.62;11.75;;;;;;;3.77;88.42;102630.91;1798540;79;21034;-63
2020/12/21 07:32:44;;;;;;;30.25;10.80;;;;;;;3.81;88.45;102634.11;1798440;79;21370;-63
2020/12/21 07:35:13;;;;;;;28.42;12.07;;;;;;;3.83;88.24;102628.81;1798511;79;21074;-63
2020/12/21 07:37:42;;;;;;;34.25;10.88;;;;;;;3.83;88.01;102627.48;1771163;79;21084;-63
2020/12/21 07:40:20;;;;;;;28.05;11.85;;;;;;;3.84;87.77;102640.80;1763349;81;21113;-62
2020/12/21 07:42:49;;;;;;;27.87;11.55;;;;;;;3.83;87.37;102636.77;1775179;80;21167;-63
2020/12/21 07:45:17;;;;;;;25.52;10.48;;;;;;;3.84;87.46;102631.52;1763342;81;21198;-62
2020/12/21 07:47:45;;;;;;;26.55;12.00;;;;;;;3.87;87.38;102633.36;1775088;80;21060;-63
2020/12/21 07:50:12;;;;;;;26.10;11.15;;;;;;;3.86;87.12;102634.19;1763297;81;21066;-64
2020/12/21 07:52:40;;;;;;;27.32;11.78;;;;;;;3.86;86.83;102634.19;1775137;80;21098;-62
2020/12/21 07:55:09;;;;;;;27.52;10.55;;;;;;;3.84;86.71;102631.93;1763305;81;21121;-63
2020/12/21 07:57:37;;;;;;;26.20;11.28;;;;;;;3.82;86.71;102629.67;1775123;80;21696;-62
2020/12/21 08:00:05;;;;;;;26.93;11.73;;;;;;;3.79;86.46;102640.22;1763323;81;21058;-63
2020/12/21 08:02:34;;;;;;;30.97;11.85;;;;;;;3.75;86.73;102635.70;1775113;80;21080;-63
2020/12/21 08:05:02;;;;;;;26.15;11.68;;;;;;;3.78;86.89;102624.75;1713823;81;21058;-63
2020/12/21 08:07:33;;;;;;;33.95;11.97;;;;;;;3.80;86.93;102628.33;1775136;80;21606;-64
2020/12/21 08:10:00;;;;;;;25.57;11.25;;;;;;;3.81;86.76;102638.50;1763370;81;21201;-63
2020/12/21 08:12:30;;;;;;;26.85;11.97;;;;;;;3.79;86.73;102640.22;1774907;80;21142;-63
2020/12/21 08:15:01;;;;;;;24.10;11.50;;;;;;;3.77;86.71;102644.59;1763423;81;21006;-63
2020/12/21 08:17:30;;;;;;;28.17;10.82;;;;;;;3.77;86.77;102633.98;1775128;80;21167;-63
2020/12/21 08:19:59;;;;;;;26.60;11.15;;;;;;;3.78;86.62;102639.76;1763574;81;21125;-63
2020/12/21 08:22:28;;;;;;;25.32;10.90;;;;;;;3.76;86.69;102626.89;1775145;80;21348;-63
2020/12/21 08:25:13;;;;;;;27.60;11.35;;;;;;;3.78;86.90;102627.81;1763604;81;21172;-62
2020/12/21 08:27:50;;;;;;;24.12;10.10;;;;;;;3.78;86.88;102630.47;1775210;80;21055;-63
2020/12/21 08:30:20;;;;;;;28.62;9.88;;;;;;;3.76;86.56;102632.19;1763563;81;21156;-62
2020/12/21 08:32:48;;;;;;;23.32;9.48;;;;;;;3.73;86.36;102630.35;1763541;81;21112;-62
2020/12/21 08:35:27;;;;;;;23.70;8.98;;;;;;;3.72;86.21;102626.82;1763441;81;21376;-62
2020/12/21 08:38:11;;;;;;;25.57;9.53;;;;;;;3.76;86.15;102634.84;1766311;81;21156;-62
2020/12/21 08:40:41;;;;;;;25.37;10.13;;;;;;;3.77;85.79;102622.05;1798266;79;20926;-63
2020/12/21 08:43:09;;;;;;;23.80;10.10;;;;;;;3.79;85.77;102630.94;1798603;79;21134;-62
2020/12/21 08:45:38;;;;;;;23.73;9.25;;;;;;;3.82;85.57;102620.39;1798517;79;21192;-64
2020/12/21 08:48:05;;;;;;;23.87;10.25;;;;;;;3.82;85.21;102617.73;1798777;79;22928;-65
2020/12/21 08:50:33;;;;;;;23.22;9.75;;;;;;;3.82;84.89;102617.73;1798501;79;21212;-63
2020/12/21 08:53:00;;;;;;;27.17;10.03;;;;;;;3.79;84.96;102613.69;1798584;79;21356;-63
2020/12/21 08:55:29;;;;;;;24.10;9.88;;;;;;;3.79;84.77;102608.38;1798504;79;21110;-62
2020/12/21 08:57:57;;;;;;;23.45;9.70;;;;;;;3.80;84.81;102611.50;1798434;79;21153;-64
2020/12/21 09:00:24;;;;;;;26.73;9.48;;;;;;;3.82;84.76;102603.14;1798571;79;21351;-62
2020/12/21 09:02:54;;;;;;;18.52;8.68;;;;;;;3.84;84.42;102608.95;1798176;79;21086;-64
2020/12/21 09:05:22;;;;;;;21.77;9.00;;;;;;;3.87;84.12;102610.80;1798623;79;21058;-63
2020/12/21 09:07:49;;;;;;;27.60;11.43;;;;;;;3.87;83.75;102604.16;1798507;79;21090;-62
2020/12/21 09:10:17;;;;;;;32.00;11.83;;;;;;;3.86;83.80;102607.64;1798616;79;21138;-61
2020/12/21 09:12:45;;;;;;;23.35;9.35;;;;;;;3.84;84.01;102602.73;1798550;79;21322;-61
2020/12/21 09:15:13;;;;;;;25.10;9.53;;;;;;;3.79;84.00;102609.30;1798446;79;21070;-61
2020/12/21 09:17:41;;;;;;;25.20;9.73;;;;;;;3.76;83.93;102595.95;1798453;79;21047;-63
2020/12/21 09:20:08;;;;;;;24.35;10.38;;;;;;;3.76;84.06;102593.72;1798576;79;20968;-63
2020/12/21 09:22:36;;;;;;;28.30;11.63;;;;;;;3.76;84.09;102596.37;1795548;79;21130;-63
2020/12/21 09:25:04;;;;;;;22.30;10.38;;;;;;;3.73;84.13;102588.81;1795431;80;21433;-63
2020/12/21 09:27:32;;;;;;;23.67;9.05;;;;;;;3.73;84.30;102588.81;1795438;79;21069;-63
2020/12/21 09:30:00;;;;;;;22.37;8.98;;;;;;;3.73;84.66;102582.17;1781729;80;21116;-63
2020/12/21 09:32:28;;;;;;;21.65;10.15;;;;;;;3.75;84.92;102572.03;1774911;80;21161;-62
2020/12/21 09:34:55;;;;;;;20.90;9.63;;;;;;;3.73;85.26;102576.88;1757954;80;21070;-58
2020/12/21 09:37:23;;;;;;;21.82;9.88;;;;;;;3.73;85.49;102566.26;1793126;80;21687;-60
2020/12/21 09:39:51;;;;;;;20.60;8.58;;;;;;;3.72;85.75;102572.84;1774430;80;21150;-65
2020/12/21 09:42:18;;;;;;;17.12;8.13;;;;;;;3.69;86.13;102568.80;1760369;81;21105;-55
2020/12/21 09:44:49;;;;;;;16.02;7.83;;;;;;;3.65;86.63;102563.88;1774431;80;21124;-57
2020/12/21 09:47:15;;;;;;;14.85;7.90;;;;;;;3.62;87.00;102563.77;1761530;81;21477;-57
2020/12/21 09:49:44;;;;;;;18.05;8.35;;;;;;;3.59;87.53;102559.73;1786804;80;21377;-57
2020/12/21 09:52:12;;;;;;;17.20;7.62;;;;;;;3.56;87.63;102557.01;1786679;80;21168;-57
2020/12/21 09:54:40;;;;;;;22.15;7.90;;;;;;;3.53;88.06;102554.29;1786608;80;21124;-56
2020/12/21 09:57:08;;;;;;;18.87;8.03;;;;;;;3.52;88.42;102563.11;1786588;80;21088;-55
2020/12/21 09:59:35;;;;;;;20.23;7.83;;;;;;;3.49;88.63;102569.67;1786748;79;21125;-56
2020/12/21 10:02:09;;;;;;;19.75;8.53;;;;;;;3.43;88.75;102561.13;1786672;80;21696;-55
2020/12/21 10:04:37;;;;;;;15.08;7.30;;;;;;;3.40;88.98;102560.61;1786841;80;21136;-56
2020/12/21 10:07:05;;;;;;;17.20;7.65;;;;;;;3.38;89.01;102553.05;1786672;80;21070;-56
2020/12/21 10:09:33;;;;;;;16.82;7.25;;;;;;;3.34;89.12;102559.15;1786773;80;21037;-56
2020/12/21 10:12:01;;;;;;;17.65;7.17;;;;;;;3.29;89.08;102552.84;1786740;80;21474;-56
2020/12/21 10:14:28;;;;;;;17.90;8.05;;;;;;;3.25;89.25;102562.47;1786730;80;21379;-57
2020/12/21 10:16:56;;;;;;;24.18;8.23;;;;;;;3.21;89.28;102557.95;1786717;80;21124;-56
2020/12/21 10:19:23;;;;;;;15.48;7.47;;;;;;;3.19;89.62;102553.46;1786736;80;21042;-56
2020/12/21 10:21:51;;;;;;;22.22;8.28;;;;;;;3.19;89.65;102557.44;1792083;79;21080;-55
2020/12/21 10:24:19;;;;;;;15.50;7.15;;;;;;;3.18;89.68;102561.86;1798510;79;21085;-56
2020/12/21 10:26:47;;;;;;;18.65;8.23;;;;;;;3.18;89.93;102547.28;1798562;79;21699;-56
2020/12/21 10:29:14;;;;;;;20.23;8.55;;;;;;;3.19;90.11;102545.09;1798347;79;21275;-56
2020/12/21 10:31:43;;;;;;;20.10;7.30;;;;;;;3.20;90.18;102544.65;1798576;79;21161;-56
2020/12/21 10:34:11;;;;;;;19.80;9.15;;;;;;;3.21;90.26;102551.78;1798372;79;21121;-56
2020/12/21 10:36:39;;;;;;;17.75;8.50;;;;;;;3.14;90.15;102549.39;1788560;79;21129;-56
2020/12/21 10:39:07;;;;;;;20.70;8.03;;;;;;;3.08;90.31;102537.30;1775014;80;21349;-57
2020/12/21 10:41:35;;;;;;;20.65;7.50;;;;;;;3.07;90.74;102534.17;1763372;81;21125;-56
2020/12/21 10:44:02;;;;;;;19.82;7.90;;;;;;;3.07;90.93;102534.17;1775019;80;21047;-57
2020/12/21 10:46:30;;;;;;;17.95;8.43;;;;;;;3.09;91.07;102532.05;1763318;81;21104;-57
2020/12/21 10:48:58;;;;;;;22.85;9.28;;;;;;;3.09;91.00;102539.99;1775145;80;21526;-57
2020/12/21 10:51:30;;;;;;;22.65;8.93;;;;;;;3.11;90.99;102529.00;1763482;81;21117;-56
2020/12/21 10:53:58;;;;;;;21.25;8.88;;;;;;;3.14;91.09;102530.84;1775101;80;21116;-57
2020/12/21 10:56:26;;;;;;;22.35;10.00;;;;;;;3.15;90.94;102533.51;1763363;81;21058;-58
2020/12/21 10:58:55;;;;;;;29.27;11.20;;;;;;;3.17;90.93;102527.34;1775063;80;21067;-57
2020/12/21 11:01:22;;;;;;;30.12;12.50;;;;;;;3.13;91.02;102532.58;1763392;81;21119;-57
2020/12/21 11:03:50;;;;;;;28.45;12.28;;;;;;;3.13;91.21;102529.05;1775264;80;22239;-57
2020/12/21 11:06:22;;;;;;;27.10;11.60;;;;;;;3.10;91.48;102524.55;1763293;81;21239;-57
2020/12/21 11:08:51;;;;;;;26.23;12.20;;;;;;;3.10;91.72;102532.51;1775117;80;21263;-57
2020/12/21 11:11:27;;;;;;;32.35;13.53;;;;;;;3.07;91.74;102529.78;1763435;81;21121;-56
2020/12/21 11:13:55;;;;;;;32.53;13.58;;;;;;;3.07;91.76;102523.58;1775128;80;21047;-57
2020/12/21 11:16:23;;;;;;;37.60;14.25;;;;;;;3.05;92.13;102519.58;1763413;81;21377;-56
2020/12/21 11:18:51;;;;;;;33.02;13.95;;;;;;;3.07;92.44;102519.19;1760284;80;21141;-56
2020/12/21 11:21:19;;;;;;;33.23;15.32;;;;;;;3.07;92.38;102527.13;1767602;80;21130;-56
2020/12/21 11:23:48;;;;;;;39.48;15.60;;;;;;;3.05;92.30;102520.91;1795921;79;21118;-57
2020/12/21 11:26:18;;;;;;;39.00;15.83;;;;;;;3.05;92.47;102512.04;1790655;79;21055;-56